Главная страница
METAR-TAF:

METAR-TAF

Аэропорты :

Врангель, Аляска, США

широта: 56-29N, долгота: 132-22W, высота над уровнем моря: 13 м

Текущие метеонаблюдения

Эта сводка был подготовлена 15 минут назад, в 11:56 UTC
Ветер 4 Узел от западный-юго-западный
Температура 14°C
Влажность 67%
Давление 1019 hPa
Видимость: 16.1 км
ясное небо

METAR: PAWG 191156Z AUTO 24004KT 10SM CLR 14/08 A3010 RMK AO2 SLP194 T01440083 10183 20122 50002 TSNO

Время: 04:11 (12:11 UTC)

Прогноз

Эта сводка был подготовлена 44 минут назад, в 11:27 UTC
Прогноз действительный с 19-го 12 UTC до 20-го 12 UTC
Ветер 4 Узел переменных направлений
Видимость: 10 км
ясное небо
С 19-го 2100 UTC
Ветер 7 Узел от западно-северо-западный
Видимость: 10 км
ясное небо
С 20-го 0600 UTC
Ветер 3 Узел переменных направлений
Видимость: 10 км
ясное небо

TAF: PAWG 191127Z 1912/2012 VRB04KT P6SM SKC FM192100 30007KT P6SM SKC FM200600 VRB03KT P6SM SKC AMD LTD TO CLD VIS AND WIND 1912/1915

Метеонаблюдения и прогнозы для более 4000 аэропортов (сводки METAR и TAF).

Имеющиеся станции представлены на карте желтыми и красными точками.

Чтобы увидеть название станции, наведите на нее мышь.

Затем щелкните, чтобы увидеть метеонаблюдения и метеопрогнозы.

Управление картой: чтобы увеличить масштаб, щелкните зеленые кнопки с черным крестиком; чтобы уменьшить масштаб, щелкните зеленую кнопку с тире; для просмотра соседних карт щелкайте зеленые стрелки.


METAR-TAF: